createdAt,value
2018-03-24T00:01:36.830Z,99.90
2018-03-24T00:04:05.168Z,99.90
2018-03-24T00:06:34.129Z,99.90
2018-03-24T00:09:02.347Z,99.90
2018-03-24T00:11:30.567Z,99.90
2018-03-24T00:13:58.775Z,99.90
2018-03-24T00:16:26.996Z,99.90
2018-03-24T00:18:55.863Z,99.90
2018-03-24T00:21:25.125Z,99.90
2018-03-24T00:23:53.833Z,99.90
2018-03-24T00:26:22.942Z,99.90
2018-03-24T00:28:52.018Z,99.90
2018-03-24T00:31:20.666Z,99.90
2018-03-24T00:33:48.877Z,99.90
2018-03-24T00:36:21.426Z,99.90
2018-03-24T00:38:49.623Z,99.90
2018-03-24T00:41:17.832Z,99.90
2018-03-24T00:43:46.262Z,99.90
2018-03-24T00:46:14.873Z,99.90
2018-03-24T00:48:43.077Z,99.90
2018-03-24T00:51:11.373Z,99.90
2018-03-24T00:53:40.122Z,99.90
2018-03-24T00:56:09.878Z,99.90
2018-03-24T00:58:38.989Z,99.90
2018-03-24T01:01:07.201Z,99.90
2018-03-24T01:03:36.750Z,99.90
2018-03-24T01:06:04.958Z,99.90
2018-03-24T01:08:34.429Z,99.90
2018-03-24T01:11:02.633Z,99.90
2018-03-24T01:13:30.845Z,99.90
2018-03-24T01:15:59.842Z,99.90
2018-03-24T01:18:28.413Z,99.90
2018-03-24T01:20:57.142Z,99.90
2018-03-24T01:23:25.352Z,99.90
2018-03-24T01:26:11.650Z,99.90
2018-03-24T01:28:41.201Z,99.90
2018-03-24T01:31:10.910Z,99.90
2018-03-24T01:33:39.897Z,99.90
2018-03-24T01:36:08.685Z,99.90
2018-03-24T01:38:37.664Z,99.90
2018-03-24T01:41:05.880Z,99.90
2018-03-24T01:43:34.369Z,99.90
2018-03-24T01:46:02.592Z,99.90
2018-03-24T01:48:30.797Z,99.90
2018-03-24T01:50:59.369Z,99.90
2018-03-24T02:06:56.066Z,99.90
2018-03-24T02:09:24.275Z,99.90
2018-03-24T02:11:53.275Z,99.90
2018-03-24T02:14:21.902Z,99.90
2018-03-24T02:16:50.112Z,99.90
2018-03-24T02:19:19.080Z,99.90
2018-03-24T02:21:47.510Z,99.90
2018-03-24T02:24:15.710Z,99.90
2018-03-24T02:26:44.277Z,99.90
2018-03-24T02:29:13.602Z,99.90
2018-03-24T02:31:42.275Z,99.90
2018-03-24T02:34:11.613Z,99.90
2018-03-24T02:36:39.821Z,99.90
2018-03-24T02:39:08.039Z,99.90
2018-03-24T02:41:36.394Z,99.90
2018-03-24T02:44:04.603Z,99.90
2018-03-24T02:46:32.807Z,99.90
2018-03-24T02:49:01.027Z,99.90
2018-03-24T02:51:30.065Z,99.90
2018-03-24T02:53:58.806Z,99.90
2018-03-24T02:56:27.788Z,99.90
2018-03-24T02:58:56.006Z,99.90
2018-03-24T03:01:24.486Z,99.90
2018-03-24T03:03:53.359Z,99.90
2018-03-24T03:06:22.376Z,99.90
2018-03-24T03:08:50.534Z,99.90
2018-03-24T03:11:18.756Z,99.90
2018-03-24T03:13:48.617Z,99.90
2018-03-24T03:16:17.593Z,99.90
2018-03-24T03:18:45.806Z,99.90
2018-03-24T03:21:14.487Z,99.90
2018-03-24T03:23:42.701Z,99.90
2018-03-24T03:26:12.266Z,99.90
2018-03-24T03:28:40.921Z,99.90
2018-03-24T03:31:24.357Z,99.90
2018-03-24T03:33:52.838Z,99.90
2018-03-24T03:36:21.046Z,99.90
2018-03-24T03:38:49.257Z,99.90
2018-03-24T03:41:17.477Z,99.90
2018-03-24T03:43:46.445Z,99.90
2018-03-24T03:46:14.678Z,99.90
2018-03-24T03:48:43.450Z,99.90
2018-03-24T03:51:13.125Z,99.90
2018-03-24T03:53:41.826Z,99.90
2018-03-24T03:56:11.321Z,99.90
2018-03-24T03:58:39.534Z,99.90
2018-03-24T04:01:08.298Z,99.90
2018-03-24T04:03:37.606Z,99.90
2018-03-24T04:06:06.578Z,99.90
2018-03-24T04:08:34.777Z,99.90
2018-03-24T04:11:04.092Z,99.90
2018-03-24T04:13:33.370Z,99.90
2018-03-24T04:16:02.345Z,99.90
2018-03-24T04:18:30.551Z,99.90
2018-03-24T04:21:00.271Z,99.90
2018-03-24T04:23:28.478Z,99.90
2018-03-24T04:25:56.692Z,99.90
2018-03-24T04:28:25.195Z,99.90
2018-03-24T04:30:53.409Z,99.90
2018-03-24T04:33:22.041Z,99.90
2018-03-24T04:35:51.729Z,99.90
2018-03-24T04:38:19.941Z,99.90
2018-03-24T04:40:48.950Z,99.90
2018-03-24T04:43:17.166Z,99.90
2018-03-24T04:45:45.382Z,99.90
2018-03-24T04:48:13.796Z,99.90
2018-03-24T04:50:42.661Z,99.90
2018-03-24T04:53:11.947Z,99.90
2018-03-24T04:55:40.146Z,99.90
2018-03-24T04:58:08.732Z,99.90
2018-03-24T05:00:38.192Z,99.90
2018-03-24T05:03:06.842Z,99.90
2018-03-24T05:05:35.055Z,99.90
2018-03-24T05:08:03.268Z,99.90
2018-03-24T05:10:31.510Z,99.90
2018-03-24T05:12:59.738Z,99.90
2018-03-24T05:15:28.483Z,99.90
2018-03-24T05:17:56.691Z,99.90
2018-03-24T05:20:25.325Z,99.90
2018-03-24T05:22:53.530Z,99.90
2018-03-24T05:25:22.741Z,99.90
2018-03-24T05:27:51.797Z,99.90
2018-03-24T05:30:23.498Z,99.90
2018-03-24T05:32:59.162Z,99.90
2018-03-24T05:35:28.005Z,99.90
2018-03-24T05:37:56.258Z,99.90
2018-03-24T05:40:24.658Z,99.90
2018-03-24T05:42:52.864Z,99.90
2018-03-24T05:45:21.625Z,99.90
2018-03-24T05:47:49.890Z,99.90
2018-03-24T05:50:18.363Z,99.90
2018-03-24T05:52:47.078Z,99.90
2018-03-24T05:55:15.290Z,99.90
2018-03-24T05:57:43.501Z,99.90
2018-03-24T06:00:11.894Z,99.90
2018-03-24T06:02:40.530Z,99.90
2018-03-24T06:05:08.737Z,99.90
2018-03-24T06:07:36.950Z,99.90
2018-03-24T06:10:05.173Z,99.90
2018-03-24T06:12:33.409Z,99.90
2018-03-24T06:15:01.762Z,99.90
2018-03-24T06:17:29.946Z,99.90
2018-03-24T06:20:00.054Z,99.90
2018-03-24T06:22:28.414Z,99.90
2018-03-24T06:24:57.148Z,99.90
2018-03-24T06:27:26.313Z,99.90
2018-03-24T06:29:54.945Z,99.90
2018-03-24T06:32:24.277Z,99.90
2018-03-24T06:34:53.045Z,99.90
2018-03-24T06:37:21.252Z,99.90
2018-03-24T06:39:49.474Z,99.90
2018-03-24T06:42:18.180Z,99.90
2018-03-24T06:44:47.211Z,99.90
2018-03-24T06:47:15.366Z,99.90
2018-03-24T06:49:44.648Z,99.90
2018-03-24T06:52:18.533Z,99.90
2018-03-24T06:54:46.752Z,99.90
2018-03-24T06:57:14.965Z,99.90
2018-03-24T06:59:43.203Z,99.90
2018-03-24T07:02:11.538Z,99.90
2018-03-24T07:04:39.749Z,99.90
2018-03-24T07:07:07.982Z,99.90
2018-03-24T07:09:36.186Z,99.90
2018-03-24T07:12:05.288Z,99.90
2018-03-24T07:14:35.809Z,99.90
2018-03-24T07:17:04.275Z,99.90
2018-03-24T07:19:35.650Z,99.90
2018-03-24T07:22:04.703Z,99.90
2018-03-24T07:24:32.909Z,99.90
2018-03-24T07:27:01.442Z,99.90
2018-03-24T07:29:29.957Z,99.90
2018-03-24T07:31:58.178Z,99.90
2018-03-24T07:34:27.638Z,99.90
2018-03-24T07:36:56.466Z,99.90
2018-03-24T07:39:25.450Z,99.90
2018-03-24T07:41:54.430Z,99.90
2018-03-24T07:44:22.646Z,99.90
2018-03-24T07:46:50.871Z,99.90
2018-03-24T07:49:19.943Z,99.90
2018-03-24T07:51:48.598Z,99.90
2018-03-24T07:54:17.017Z,99.90
2018-03-24T07:56:45.231Z,99.90
2018-03-24T07:59:14.197Z,99.90
2018-03-24T08:01:43.015Z,99.90
2018-03-24T08:04:11.458Z,99.90
2018-03-24T08:06:39.606Z,99.90
2018-03-24T08:09:07.824Z,99.90
2018-03-24T08:11:36.634Z,99.90
2018-03-24T08:14:06.089Z,99.90
2018-03-24T08:16:34.287Z,99.90
2018-03-24T08:19:02.677Z,99.90
2018-03-24T08:21:31.198Z,99.90
2018-03-24T08:23:59.405Z,99.90
2018-03-24T08:26:28.857Z,99.90
2018-03-24T08:28:58.097Z,99.90
2018-03-24T08:31:26.305Z,99.90
2018-03-24T08:33:55.927Z,99.90
2018-03-24T08:36:24.122Z,99.90
2018-03-24T08:38:53.089Z,99.90
2018-03-24T08:41:21.370Z,99.90
2018-03-24T08:43:49.574Z,99.90
2018-03-24T08:46:18.534Z,99.90
2018-03-24T08:48:47.117Z,99.90
2018-03-24T08:51:15.825Z,99.90
2018-03-24T08:53:44.862Z,99.60
2018-03-24T08:56:13.396Z,99.60
2018-03-24T08:58:41.601Z,98.70
2018-03-24T09:01:09.942Z,97.70
2018-03-24T09:03:38.536Z,96.70
2018-03-24T09:06:07.214Z,95.70
2018-03-24T09:08:35.422Z,95.30
2018-03-24T09:11:03.642Z,95.00
2018-03-24T09:13:32.213Z,93.90
2018-03-24T09:16:01.038Z,93.30
2018-03-24T09:18:29.249Z,89.10
2018-03-24T09:20:57.840Z,86.80
2018-03-24T09:23:26.050Z,80.40
2018-03-24T09:25:55.954Z,78.10
2018-03-24T09:28:24.326Z,76.40
2018-03-24T09:30:52.534Z,76.40
2018-03-24T09:33:20.961Z,77.80
2018-03-24T09:35:49.167Z,67.70
2018-03-24T09:38:17.385Z,60.60
2018-03-24T09:40:45.607Z,60.70
2018-03-24T09:43:13.803Z,62.90
2018-03-24T09:45:42.001Z,65.40
2018-03-24T09:48:10.225Z,66.50
2018-03-24T09:50:38.817Z,61.60
2018-03-24T09:53:07.147Z,56.80
2018-03-24T09:55:35.344Z,55.30
2018-03-24T09:58:03.552Z,54.70
2018-03-24T10:00:31.974Z,53.50
2018-03-24T10:03:00.473Z,51.80
2018-03-24T10:05:29.496Z,49.70
2018-03-24T10:07:58.009Z,49.70
2018-03-24T10:10:26.273Z,48.10
2018-03-24T10:12:54.931Z,48.70
2018-03-24T10:15:23.281Z,47.60
2018-03-24T10:17:51.493Z,46.10
2018-03-24T10:20:19.845Z,45.40
2018-03-24T10:23:01.245Z,46.80
2018-03-24T10:25:30.233Z,48.40
2018-03-24T10:27:58.655Z,48.60
2018-03-24T10:30:27.072Z,49.30
2018-03-24T10:33:01.505Z,50.10
2018-03-24T10:35:30.197Z,49.10
2018-03-24T10:38:00.059Z,49.50
2018-03-24T10:40:28.258Z,49.50
2018-03-24T10:43:02.057Z,49.80
2018-03-24T10:45:30.793Z,50.20
2018-03-24T10:47:58.995Z,52.10
2018-03-24T10:50:27.649Z,52.80
2018-03-24T10:52:56.709Z,52.50
2018-03-24T10:55:25.689Z,52.40
2018-03-24T10:57:53.899Z,52.30
2018-03-24T11:00:32.295Z,52.10
2018-03-24T11:03:00.592Z,52.80
2018-03-24T11:05:29.083Z,54.00
2018-03-24T11:07:57.671Z,54.50
2018-03-24T11:10:27.174Z,56.00
2018-03-24T11:12:56.473Z,57.60
2018-03-24T11:15:26.197Z,55.60
2018-03-24T11:17:55.680Z,55.70
2018-03-24T11:20:24.366Z,55.70
2018-03-24T11:22:52.574Z,54.90
2018-03-24T11:25:21.108Z,52.40
2018-03-24T11:27:50.073Z,51.90
2018-03-24T11:30:18.734Z,51.90
2018-03-24T11:32:48.642Z,51.90
2018-03-24T11:35:17.106Z,52.00
2018-03-24T11:37:45.322Z,53.10
2018-03-24T11:40:14.561Z,52.50
2018-03-24T11:42:42.765Z,53.10
2018-03-24T11:45:11.770Z,51.40
2018-03-24T11:47:40.749Z,50.50
2018-03-24T11:50:09.774Z,51.20
2018-03-24T11:52:38.321Z,51.20
2018-03-24T11:55:06.553Z,52.10
2018-03-24T11:57:34.787Z,51.90
2018-03-24T12:00:08.397Z,53.30
2018-03-24T12:02:37.151Z,53.30
2018-03-24T12:05:06.178Z,54.30
2018-03-24T12:07:36.273Z,54.40
2018-03-24T12:16:12.179Z,52.70
2018-03-24T12:18:40.386Z,50.90
2018-03-24T12:21:09.923Z,50.70
2018-03-24T12:23:39.194Z,50.60
2018-03-24T12:26:07.396Z,49.40
2018-03-24T12:28:37.158Z,46.90
2018-03-24T12:31:06.121Z,46.00
2018-03-24T12:33:34.742Z,45.90
2018-03-24T12:36:03.785Z,47.20
2018-03-24T12:38:32.663Z,47.20
2018-03-24T12:41:03.281Z,45.70
2018-03-24T12:43:31.556Z,46.20
2018-03-24T12:46:00.711Z,46.40
2018-03-24T12:48:29.020Z,45.80
2018-03-24T12:50:57.593Z,46.40
2018-03-24T12:53:26.709Z,47.80
2018-03-24T12:55:54.913Z,47.70
2018-03-24T12:58:23.118Z,44.70
2018-03-24T13:00:51.701Z,44.80
2018-03-24T13:03:20.185Z,45.70
2018-03-24T13:05:48.747Z,45.70
2018-03-24T13:08:17.041Z,44.70
2018-03-24T13:10:45.232Z,45.80
2018-03-24T13:13:20.898Z,45.90
2018-03-24T13:15:50.212Z,44.00
2018-03-24T13:18:18.404Z,44.00
2018-03-24T13:20:46.933Z,44.10
2018-03-24T13:23:15.738Z,40.30
2018-03-24T13:25:43.943Z,41.10
2018-03-24T13:28:12.598Z,39.80
2018-03-24T13:30:40.866Z,37.60
2018-03-24T13:33:09.257Z,39.40
2018-03-24T13:35:37.450Z,39.60
2018-03-24T13:38:05.642Z,37.10
2018-03-24T13:40:33.858Z,36.60
2018-03-24T13:43:02.053Z,36.90
2018-03-24T13:45:30.251Z,36.40
2018-03-24T13:47:58.462Z,36.70
2018-03-24T13:50:29.457Z,37.50
2018-03-24T13:52:58.750Z,35.70
2018-03-24T13:55:27.730Z,35.40
2018-03-24T13:57:55.946Z,35.50
2018-03-24T14:00:25.838Z,34.50
2018-03-24T14:02:54.709Z,32.70
2018-03-24T14:05:22.912Z,32.30
2018-03-24T14:07:51.876Z,33.00
2018-03-24T14:10:20.561Z,32.90
2018-03-24T14:12:48.765Z,32.90
2018-03-24T14:15:18.358Z,32.30
2018-03-24T14:17:46.832Z,32.30
2018-03-24T14:20:15.311Z,32.40
2018-03-24T14:22:43.606Z,32.00
2018-03-24T14:25:12.584Z,31.60
2018-03-24T14:27:43.623Z,31.60
2018-03-24T14:30:12.180Z,32.00
2018-03-24T14:32:40.812Z,33.00
2018-03-24T14:35:10.152Z,33.00
2018-03-24T14:37:38.368Z,32.80
2018-03-24T14:40:06.565Z,31.50
2018-03-24T14:42:35.839Z,32.50
2018-03-24T14:45:04.034Z,32.20
2018-03-24T14:47:32.249Z,31.50
2018-03-24T14:50:00.458Z,31.40
2018-03-24T14:52:28.991Z,30.60
2018-03-24T14:54:57.767Z,30.90
2018-03-24T14:57:26.737Z,30.60
2018-03-24T14:59:54.933Z,30.50
2018-03-24T15:02:24.015Z,30.90
2018-03-24T15:07:26.085Z,30.30
2018-03-24T15:09:54.294Z,31.00
2018-03-24T15:12:22.578Z,31.20
2018-03-24T15:14:51.450Z,31.00
2018-03-24T15:17:19.650Z,30.70
2018-03-24T15:19:47.864Z,30.30
2018-03-24T15:22:16.638Z,30.20
2018-03-24T15:24:44.844Z,30.60
2018-03-24T15:27:13.196Z,30.10
2018-03-24T15:43:10.178Z,30.10
2018-03-24T15:45:38.409Z,30.10
2018-03-24T15:48:06.973Z,31.00
2018-03-24T15:50:36.465Z,31.40
2018-03-24T15:53:06.072Z,30.90
2018-03-24T15:55:35.067Z,30.70
2018-03-24T15:58:03.663Z,30.70
2018-03-24T16:00:33.341Z,31.10
2018-03-24T16:03:02.432Z,31.10
2018-03-24T16:05:30.630Z,31.50
2018-03-24T16:07:58.830Z,31.30
2018-03-24T16:10:27.041Z,31.20
2018-03-24T16:12:55.250Z,32.00
2018-03-24T16:15:23.622Z,31.60
2018-03-24T16:17:52.059Z,32.50
2018-03-24T16:20:20.599Z,32.80
2018-03-24T16:22:49.582Z,33.70
2018-03-24T16:25:17.785Z,33.70
2018-03-24T16:27:47.067Z,35.00
2018-03-24T16:30:15.326Z,35.00
2018-03-24T16:32:43.529Z,35.90
2018-03-24T16:35:11.822Z,36.00
2018-03-24T16:37:40.016Z,36.50
2018-03-24T16:40:08.226Z,37.30
2018-03-24T16:42:37.013Z,37.90
2018-03-24T16:45:05.199Z,38.30
2018-03-24T16:47:33.414Z,38.80
2018-03-24T16:50:01.989Z,39.40
2018-03-24T16:52:30.666Z,40.00
2018-03-24T16:54:59.633Z,40.70
2018-03-24T16:57:28.456Z,40.70
2018-03-24T16:59:56.676Z,41.20
2018-03-24T17:02:25.400Z,41.70
2018-03-24T17:04:53.597Z,43.10
2018-03-24T17:07:21.817Z,43.00
2018-03-24T17:09:50.046Z,43.70
2018-03-24T17:12:19.561Z,44.40
2018-03-24T17:14:48.228Z,45.00
2018-03-24T17:17:17.254Z,45.40
2018-03-24T17:19:45.465Z,45.40
2018-03-24T17:22:14.213Z,45.80
2018-03-24T17:24:42.426Z,46.40
2018-03-24T17:27:10.725Z,46.60
2018-03-24T17:29:39.302Z,47.00
2018-03-24T17:32:07.525Z,47.30
2018-03-24T17:34:36.810Z,47.80
2018-03-24T17:37:05.787Z,48.50
2018-03-24T17:39:33.999Z,48.50
2018-03-24T17:42:02.553Z,48.80
2018-03-24T17:44:30.761Z,49.30
2018-03-24T17:46:59.757Z,50.00
2018-03-24T17:49:28.011Z,50.00
2018-03-24T17:51:56.904Z,50.20
2018-03-24T17:54:26.120Z,50.90
2018-03-24T17:56:54.328Z,50.90
2018-03-24T17:59:22.889Z,51.10
2018-03-24T18:01:51.835Z,51.20
2018-03-24T18:04:20.415Z,51.50
2018-03-24T18:06:49.164Z,51.60
2018-03-24T18:09:17.357Z,52.00
2018-03-24T18:11:46.180Z,52.10
2018-03-24T18:14:15.652Z,53.60
2018-03-24T18:16:44.559Z,53.50
2018-03-24T18:19:13.469Z,53.70
2018-03-24T18:21:42.061Z,53.70
2018-03-24T18:24:10.267Z,54.00
2018-03-24T18:26:38.866Z,54.40
2018-03-24T18:29:07.426Z,54.80
2018-03-24T18:31:36.446Z,55.00
2018-03-24T18:34:04.965Z,55.10
2018-03-24T18:36:33.170Z,55.20
2018-03-24T18:39:01.373Z,55.60
2018-03-24T18:41:29.600Z,55.90
2018-03-24T18:43:59.330Z,56.40
2018-03-24T18:46:28.425Z,56.70
2018-03-24T18:48:57.397Z,56.90
2018-03-24T18:51:26.081Z,56.90
2018-03-24T18:53:54.652Z,57.40
2018-03-24T18:56:22.848Z,57.30
2018-03-24T18:58:51.063Z,57.60
2018-03-24T19:01:19.818Z,57.80
2018-03-24T19:03:48.386Z,57.90
2018-03-24T19:06:16.590Z,58.10
2018-03-24T19:08:44.794Z,58.30
2018-03-24T19:11:13.017Z,58.50
2018-03-24T19:13:41.556Z,58.70
2018-03-24T19:16:10.356Z,58.80
2018-03-24T19:18:38.861Z,59.10
2018-03-24T19:21:07.592Z,59.20
2018-03-24T19:23:35.822Z,59.60
2018-03-24T19:26:04.025Z,59.80
2018-03-24T19:28:33.522Z,60.30
2018-03-24T19:31:03.050Z,60.70
2018-03-24T19:33:31.917Z,60.50
2018-03-24T19:36:00.122Z,60.80
2018-03-24T19:38:28.347Z,61.40
2018-03-24T19:40:56.589Z,61.60
2018-03-24T19:43:25.081Z,61.90
2018-03-24T19:45:53.273Z,61.90
2018-03-24T19:48:25.865Z,62.60
2018-03-24T19:50:54.792Z,62.60
2018-03-24T19:53:24.312Z,63.40
2018-03-24T19:55:54.166Z,63.90
2018-03-24T19:58:22.381Z,63.90
2018-03-24T20:00:51.043Z,64.50
2018-03-24T20:03:20.794Z,64.70
2018-03-24T20:05:48.930Z,65.10
2018-03-24T20:08:17.137Z,65.50
2018-03-24T20:10:46.433Z,66.10
2018-03-24T20:13:22.300Z,66.10
2018-03-24T20:15:57.822Z,66.10
2018-03-24T20:18:26.810Z,66.50
2018-03-24T20:20:55.114Z,67.10
2018-03-24T20:23:23.728Z,68.10
2018-03-24T20:25:52.050Z,68.70
2018-03-24T20:28:20.306Z,68.80
2018-03-24T20:30:48.512Z,69.80
2018-03-24T20:33:17.330Z,71.40
2018-03-24T20:35:45.546Z,71.80
2018-03-24T20:38:13.760Z,73.20
2018-03-24T20:40:42.753Z,74.80
2018-03-24T20:43:12.293Z,76.40
2018-03-24T20:45:41.655Z,76.80
2018-03-24T20:48:10.034Z,76.80
2018-03-24T20:50:42.582Z,77.50
2018-03-24T20:53:11.218Z,77.70
2018-03-24T20:55:39.429Z,79.00
2018-03-24T20:58:07.642Z,79.30
2018-03-24T21:00:36.546Z,79.90
2018-03-24T21:03:06.234Z,82.80
2018-03-24T21:05:34.736Z,82.80
2018-03-24T21:08:03.716Z,83.30
2018-03-24T21:10:31.938Z,83.20
2018-03-24T21:13:00.149Z,83.40
2018-03-24T21:15:28.835Z,83.70
2018-03-24T21:17:57.485Z,84.80
2018-03-24T21:20:26.253Z,84.90
2018-03-24T21:22:55.733Z,87.60
2018-03-24T21:25:23.946Z,87.50
2018-03-24T21:27:52.385Z,88.40
2018-03-24T21:30:20.598Z,89.90
2018-03-24T21:32:49.181Z,90.20
2018-03-24T21:35:17.737Z,90.30
2018-03-24T21:37:45.945Z,90.60
2018-03-24T21:40:14.156Z,91.20
2018-03-24T21:42:47.089Z,91.70
2018-03-24T21:45:16.385Z,92.30
2018-03-24T21:47:47.941Z,92.50
2018-03-24T21:50:16.162Z,92.40
2018-03-24T21:52:44.482Z,93.10
2018-03-24T21:55:12.690Z,93.00
2018-03-24T21:57:41.842Z,93.90
2018-03-24T22:00:10.053Z,93.90
2018-03-24T22:02:39.382Z,95.20
2018-03-24T22:05:07.590Z,95.10
2018-03-24T22:07:36.184Z,95.20
2018-03-24T22:10:04.380Z,95.90
2018-03-24T22:12:33.358Z,96.50
2018-03-24T22:15:02.157Z,96.50
2018-03-24T22:17:31.080Z,97.20
2018-03-24T22:20:00.577Z,96.90
2018-03-24T22:22:29.543Z,97.40
2018-03-24T22:24:58.129Z,97.30
2018-03-24T22:27:26.548Z,97.40
2018-03-24T22:29:54.805Z,97.90
2018-03-24T22:32:23.014Z,98.50
2018-03-24T22:34:51.899Z,98.60
2018-03-24T22:37:20.101Z,98.30
2018-03-24T22:39:48.330Z,98.90
2018-03-24T22:42:16.889Z,98.80
2018-03-24T22:44:45.576Z,98.80
2018-03-24T22:47:13.785Z,98.80
2018-03-24T22:49:41.993Z,98.90
2018-03-24T22:52:10.594Z,99.20
2018-03-24T22:54:39.371Z,99.10
2018-03-24T22:57:07.582Z,99.00
2018-03-24T22:59:36.288Z,99.00
2018-03-24T23:02:16.891Z,99.10
2018-03-24T23:04:45.098Z,99.40
2018-03-24T23:07:13.320Z,99.60
2018-03-24T23:09:41.534Z,99.90
2018-03-24T23:12:10.158Z,99.90
2018-03-24T23:14:39.049Z,99.90
2018-03-24T23:17:08.511Z,99.90
2018-03-24T23:19:37.281Z,99.90
2018-03-24T23:22:05.848Z,99.90
2018-03-24T23:24:34.058Z,99.90
2018-03-24T23:27:09.498Z,99.90
2018-03-24T23:29:37.697Z,99.90
2018-03-24T23:32:05.905Z,99.80
2018-03-24T23:34:35.176Z,99.90
2018-03-24T23:37:03.382Z,99.90
2018-03-24T23:39:32.165Z,99.90
2018-03-24T23:42:01.494Z,99.90
2018-03-24T23:44:29.798Z,99.90
2018-03-24T23:46:58.010Z,99.90
2018-03-24T23:49:26.252Z,99.90
2018-03-24T23:51:54.724Z,99.90
2018-03-24T23:54:23.833Z,99.90
2018-03-24T23:56:52.031Z,99.90
2018-03-24T23:59:20.631Z,99.90
